Atlanta, Indiana
Current Conditions -  °F | °C
As of 2:55 AM on Saturday 25 Oct 2014 (Local Time) from KTYQ Reporting Station
Broken Clouds Broken Clouds  
Wind Chill: 53°   Ceiling: 8500
Heat Index: 53°   Visibility: 7mi
Dew Point: 49°   Wind: 5mph
Humidity: 86%   Direction: 190°S
Pressure: 30"   Gusts: NA
Location:  40.22°N, 86.03°W
Report Text: KTYQ 250655Z AUTO 19004KT 7SM SCT055 BKN085 12/09 A3000 RMK AO2 T01150092
Loading
Personal Weather Stations






























Interactive Weather Map New forecast layout! Learn more

10-Day Weather Forecast

Advertisements
Track Severe Weather on mobile